Carnival Vista — 3EMB9 — position and weather

sailwx.info

Track history (hours):
 
Tides and Currents Weather Stations Pressure Air Temp Water Temp Dewpoint Dewpoint Depression Visibility Wind Speed Wind Dir Waves Ship Positions

Carnival Vista

Last reported at 2020-Apr-02 21:15 UTC. Time now 2020-Apr-02 22:38 UTC.
Position N 29°06' W 094°37'.

Length 324 m; draft 8.6 m.

Type: Passenger vessel. MMSI: 356883000.

Date/timePositionNaut miles runAvg speedWind from/ knotsBaromVisibWave heightAir tempDewpointWater temp
2020-Apr-02 21:15N 29°06' W 094°37'0 0.0
2020-Apr-02 20:33N 29°06' W 094°37'0 0.0
2020-Apr-02 19:27N 29°06' W 094°37'0 0.0
2020-Apr-02 18:54N 29°06' W 094°37'0 0.0
2020-Apr-02 18:15N 29°06' W 094°37'0 0.0
2020-Apr-02 15:18N 29°06' W 094°37'0 0.0
2020-Apr-02 13:21N 29°06' W 094°37'0 0.0
2020-Apr-02 11:51N 29°06' W 094°37'0 0.0
2020-Apr-02 11:00N 29°06' W 094°37'0 0.0
2020-Apr-02 10:30N 29°06' W 094°37'0 0.0
2020-Apr-02 09:09N 29°06' W 094°37'0 0.0
2020-Apr-02 08:00N 29°06' W 094°37'0 0.0
2020-Apr-02 07:18N 29°06' W 094°37'0 0.0
2020-Apr-02 05:27N 29°06' W 094°37'9 2.9
2020-Apr-02 02:14N 29°14' W 094°34'414.9
2020-Apr-02 02:00N 29°17' W 094°37'10 3.2
2020-Apr-01 22:58N 29°19' W 094°48'0 0.0
2020-Apr-01 22:28N 29°19' W 094°48'0 0.0
2020-Apr-01 21:28N 29°19' W 094°48'0 0.0
2020-Apr-01 20:58N 29°19' W 094°48'0 0.0
2020-Apr-01 18:28N 29°19' W 094°48'0 0.0
2020-Apr-01 17:58N 29°19' W 094°48'0 0.0
2020-Apr-01 16:58N 29°19' W 094°48'0 0.0
2020-Apr-01 16:28N 29°19' W 094°48'0 0.0
2020-Apr-01 10:28N 29°19' W 094°48'0 0.0
2020-Apr-01 07:58N 29°19' W 094°48'0 0.0
2020-Apr-01 07:28N 29°19' W 094°48'0 0.0
2020-Mar-31 21:58N 29°19' W 094°48'0 0.0
2020-Mar-31 20:58N 29°19' W 094°48'0 0.0
2020-Mar-31 20:28N 29°19' W 094°48'0 0.0
2020-Mar-31 17:55N 29°19' W 094°48'0 0.0
2020-Mar-31 16:28N 29°19' W 094°48'0 0.0
2020-Mar-31 15:55N 29°19' W 094°48'0 0.0
2020-Mar-31 11:28N 29°19' W 094°48'0 0.0
2020-Mar-31 10:58N 29°19' W 094°48'0 0.0
2020-Mar-31 09:58N 29°19' W 094°48'0 0.0
2020-Mar-31 09:28N 29°19' W 094°48'0 0.0
2020-Mar-31 08:28N 29°19' W 094°48'0 0.0
2020-Mar-31 07:28N 29°19' W 094°48'0 0.0
2020-Mar-31 06:28N 29°19' W 094°48'0 0.0
2020-Mar-31 04:58N 29°19' W 094°48'0 0.0
2020-Mar-31 04:28N 29°19' W 094°48'0 0.0
2020-Mar-31 03:25N 29°19' W 094°48'0 0.0
2020-Mar-31 00:58N 29°19' W 094°48'0 0.0
2020-Mar-30 23:28N 29°19' W 094°48'0 0.0
2020-Mar-30 21:28N 29°19' W 094°48'0 0.0
2020-Mar-30 20:58N 29°19' W 094°48'0 0.0
2020-Mar-30 17:28N 29°19' W 094°48'0 0.0
2020-Mar-30 16:28N 29°19' W 094°48'0 0.0
2020-Mar-30 14:28N 29°19' W 094°48'0 0.0
2020-Mar-30 13:55N 29°19' W 094°48'0 0.0
2020-Mar-30 11:58N 29°19' W 094°48'0 0.0
2020-Mar-30 10:22N 29°19' W 094°48'0 0.0
2020-Mar-30 08:28N 29°19' W 094°48'0 0.0
2020-Mar-30 07:58N 29°19' W 094°48'0 0.0
2020-Mar-30 05:58N 29°19' W 094°48'0 0.0
2020-Mar-30 05:28N 29°19' W 094°48'0 0.0
2020-Mar-30 04:28N 29°19' W 094°48'0 0.0
2020-Mar-30 01:58N 29°19' W 094°48'0 0.0
2020-Mar-30 01:28N 29°19' W 094°48'0 0.0
2020-Mar-29 22:28N 29°19' W 094°48'0 0.0
2020-Mar-29 21:25N 29°19' W 094°48'0 0.0
2020-Mar-29 20:28N 29°19' W 094°48'0 0.0
2020-Mar-29 19:28N 29°19' W 094°48'0 0.0
2020-Mar-29 18:58N 29°19' W 094°48'0 0.0
2020-Mar-29 17:55N 29°19' W 094°48'0 0.0
2020-Mar-29 17:28N 29°19' W 094°48'0 0.0
2020-Mar-29 16:28N 29°19' W 094°48'0 0.0
2020-Mar-29 14:28N 29°19' W 094°48'0 0.0
2020-Mar-29 13:28N 29°19' W 094°48'0 0.0
2020-Mar-29 12:58N 29°19' W 094°48'0 0.0
2020-Mar-29 12:28N 29°19' W 094°48'0 0.1
2020-Mar-29 11:30N 29°19' W 094°48'22 9.0
2020-Mar-29 09:01N 29°08' W 094°25'11 1.3
2020-Mar-29 00:00N 29°06' W 094°38'0 0.0
2020-Mar-28 23:23N 29°06' W 094°38'0 0.0
2020-Mar-28 20:44N 29°06' W 094°38'0 0.0
2020-Mar-28 15:29N 29°06' W 094°38'0 0.0
2020-Mar-28 12:23N 29°06' W 094°38'0 0.0
2020-Mar-28 11:47N 29°06' W 094°38'0 0.0
2020-Mar-28 11:29N 29°06' W 094°38'0 0.0
2020-Mar-28 08:29N 29°06' W 094°38'0 0.0
2020-Mar-28 06:17N 29°06' W 094°38'0 0.1
2020-Mar-28 05:56N 29°06' W 094°38'0 0.0
2020-Mar-28 02:59N 29°06' W 094°38'0 0.0
2020-Mar-28 02:26N 29°06' W 094°38'0 0.0
2020-Mar-28 01:50N 29°06' W 094°38'0 0.0
2020-Mar-28 00:59N 29°06' W 094°38'0 0.0
2020-Mar-27 22:26N 29°06' W 094°38'0 0.0
2020-Mar-27 21:29N 29°06' W 094°38'0 0.0
2020-Mar-27 16:56N 29°06' W 094°38'0 0.0
2020-Mar-27 16:29N 29°06' W 094°38'0 0.0
2020-Mar-27 15:56N 29°06' W 094°38'0 0.0
2020-Mar-27 14:59N 29°06' W 094°38'0 0.0
2020-Mar-27 13:26N 29°06' W 094°38'0 0.1
2020-Mar-27 12:29N 29°06' W 094°38'0 0.2
2020-Mar-27 11:59N 29°06' W 094°38'0 0.0
2020-Mar-27 10:29N 29°06' W 094°38'0 0.0
2020-Mar-27 09:59N 29°06' W 094°38'0 0.0
2020-Mar-27 07:50N 29°06' W 094°38'0 0.0
2020-Mar-27 05:59N 29°06' W 094°38'0 0.0
2020-Mar-27 03:29N 29°06' W 094°38'0 0.0
2020-Mar-26 21:26N 29°06' W 094°38'0 0.0
2020-Mar-26 20:59N 29°06' W 094°38'0 0.0
2020-Mar-26 17:56N 29°06' W 094°38'0 0.0
2020-Mar-26 17:26N 29°06' W 094°38'0 0.0
2020-Mar-26 14:53N 29°06' W 094°38'0 0.0
2020-Mar-26 13:26N 29°06' W 094°38'0 0.0
2020-Mar-26 10:59N 29°06' W 094°38'0 0.0
2020-Mar-26 09:59N 29°06' W 094°38'0 0.0
2020-Mar-26 09:29N 29°06' W 094°38'0 0.0
2020-Mar-26 07:56N 29°06' W 094°38'0 0.0
2020-Mar-26 07:26N 29°06' W 094°38'0 0.0
2020-Mar-26 06:59N 29°06' W 094°38'0 0.0
2020-Mar-26 06:29N 29°06' W 094°38'0 0.0
2020-Mar-26 05:59N 29°06' W 094°38'0 0.0
2020-Mar-26 05:29N 29°06' W 094°38'0 0.4
2020-Mar-26 04:30N 29°06' W 094°38'4 4.5
2020-Mar-26 03:30N 29°04' W 094°34'19 4.3
2020-Mar-25 22:58N 29°19' W 094°48'0 0.0
2020-Mar-25 20:28N 29°19' W 094°48'0 0.0
2020-Mar-25 15:28N 29°19' W 094°48'0 0.0
2020-Mar-25 13:28N 29°19' W 094°48'0 0.0
2020-Mar-25 12:58N 29°19' W 094°48'0 0.0
2020-Mar-25 10:28N 29°19' W 094°48'0 0.0
2020-Mar-25 08:28N 29°19' W 094°48'0 0.0
2020-Mar-25 07:58N 29°19' W 094°48'0 0.0
2020-Mar-25 05:28N 29°19' W 094°48'0 0.0
2020-Mar-25 01:28N 29°19' W 094°48'0 0.0
2020-Mar-25 00:58N 29°19' W 094°48'0 0.0
2020-Mar-25 00:28N 29°19' W 094°48'0 0.0
2020-Mar-24 22:58N 29°19' W 094°48'0 0.0
2020-Mar-24 21:31N 29°19' W 094°48'0 0.0
2020-Mar-24 19:58N 29°19' W 094°48'0 0.0
2020-Mar-24 19:31N 29°19' W 094°48'0 0.0
2020-Mar-24 18:58N 29°19' W 094°48'0 0.0
2020-Mar-24 17:28N 29°19' W 094°48'0 0.0
2020-Mar-24 16:58N 29°19' W 094°48'0 0.0
2020-Mar-24 15:28N 29°19' W 094°48'0 0.0
2020-Mar-24 13:58N 29°19' W 094°48'0 0.0
2020-Mar-24 13:28N 29°19' W 094°48'0 0.0
2020-Mar-24 12:58N 29°19' W 094°48'16 5.4
2020-Mar-24 10:01N 29°14' W 094°30'1811.7
2020-Mar-24 08:30N 28°57' W 094°24'612.6
2020-Mar-24 08:00N 28°51' W 094°24'612.7
2020-Mar-24 07:30N 28°45' W 094°24'19 7.9
2020-Mar-24 05:06N 28°26' W 094°19'610.2
2020-Mar-24 04:30N 28°20' W 094°17'19 6.5
2020-Mar-24 01:31N 28°17' W 094°38'8 7.7
2020-Mar-24 00:30N 28°17' W 094°47'9 8.8
2020-Mar-23 23:30N 28°26' W 094°47'  
Track history (hours):
 
Tides and Currents Weather Stations Pressure Air Temp Water Temp Dewpoint Dewpoint Depression Visibility Wind Speed Wind Dir Waves Ship Positions

Carnival Vista

Last reported at 2020-Apr-02 21:15 UTC. Time now 2020-Apr-02 22:38 UTC.
Position N 29°06' W 094°37'.

Length 324 m; draft 8.6 m.

Type: Passenger vessel. MMSI: 356883000.

Date/timePositionNaut miles runAvg speedWind from/ knotsBaromVisibWave heightAir tempDewpointWater temp
2020-Apr-02 21:15N 29°06' W 094°37'0 0.0
2020-Apr-02 20:33N 29°06' W 094°37'0 0.0
2020-Apr-02 19:27N 29°06' W 094°37'0 0.0
2020-Apr-02 18:54N 29°06' W 094°37'0 0.0
2020-Apr-02 18:15N 29°06' W 094°37'0 0.0
2020-Apr-02 15:18N 29°06' W 094°37'0 0.0
2020-Apr-02 13:21N 29°06' W 094°37'0 0.0
2020-Apr-02 11:51N 29°06' W 094°37'0 0.0
2020-Apr-02 11:00N 29°06' W 094°37'0 0.0
2020-Apr-02 10:30N 29°06' W 094°37'0 0.0
2020-Apr-02 09:09N 29°06' W 094°37'0 0.0
2020-Apr-02 08:00N 29°06' W 094°37'0 0.0
2020-Apr-02 07:18N 29°06' W 094°37'0 0.0
2020-Apr-02 05:27N 29°06' W 094°37'9 2.9
2020-Apr-02 02:14N 29°14' W 094°34'414.9
2020-Apr-02 02:00N 29°17' W 094°37'10 3.2
2020-Apr-01 22:58N 29°19' W 094°48'0 0.0
2020-Apr-01 22:28N 29°19' W 094°48'0 0.0
2020-Apr-01 21:28N 29°19' W 094°48'0 0.0
2020-Apr-01 20:58N 29°19' W 094°48'0 0.0
2020-Apr-01 18:28N 29°19' W 094°48'0 0.0
2020-Apr-01 17:58N 29°19' W 094°48'0 0.0
2020-Apr-01 16:58N 29°19' W 094°48'0 0.0
2020-Apr-01 16:28N 29°19' W 094°48'0 0.0
2020-Apr-01 10:28N 29°19' W 094°48'0 0.0
2020-Apr-01 07:58N 29°19' W 094°48'0 0.0
2020-Apr-01 07:28N 29°19' W 094°48'0 0.0
2020-Mar-31 21:58N 29°19' W 094°48'0 0.0
2020-Mar-31 20:58N 29°19' W 094°48'0 0.0
2020-Mar-31 20:28N 29°19' W 094°48'0 0.0
2020-Mar-31 17:55N 29°19' W 094°48'0 0.0
2020-Mar-31 16:28N 29°19' W 094°48'0 0.0
2020-Mar-31 15:55N 29°19' W 094°48'0 0.0
2020-Mar-31 11:28N 29°19' W 094°48'0 0.0
2020-Mar-31 10:58N 29°19' W 094°48'0 0.0
2020-Mar-31 09:58N 29°19' W 094°48'0 0.0
2020-Mar-31 09:28N 29°19' W 094°48'0 0.0
2020-Mar-31 08:28N 29°19' W 094°48'0 0.0
2020-Mar-31 07:28N 29°19' W 094°48'0 0.0
2020-Mar-31 06:28N 29°19' W 094°48'0 0.0
2020-Mar-31 04:58N 29°19' W 094°48'0 0.0
2020-Mar-31 04:28N 29°19' W 094°48'0 0.0
2020-Mar-31 03:25N 29°19' W 094°48'0 0.0
2020-Mar-31 00:58N 29°19' W 094°48'0 0.0
2020-Mar-30 23:28N 29°19' W 094°48'0 0.0
2020-Mar-30 21:28N 29°19' W 094°48'0 0.0
2020-Mar-30 20:58N 29°19' W 094°48'0 0.0
2020-Mar-30 17:28N 29°19' W 094°48'0 0.0
2020-Mar-30 16:28N 29°19' W 094°48'0 0.0
2020-Mar-30 14:28N 29°19' W 094°48'0 0.0
2020-Mar-30 13:55N 29°19' W 094°48'0 0.0
2020-Mar-30 11:58N 29°19' W 094°48'0 0.0
2020-Mar-30 10:22N 29°19' W 094°48'0 0.0
2020-Mar-30 08:28N 29°19' W 094°48'0 0.0
2020-Mar-30 07:58N 29°19' W 094°48'0 0.0
2020-Mar-30 05:58N 29°19' W 094°48'0 0.0
2020-Mar-30 05:28N 29°19' W 094°48'0 0.0
2020-Mar-30 04:28N 29°19' W 094°48'0 0.0
2020-Mar-30 01:58N 29°19' W 094°48'0 0.0
2020-Mar-30 01:28N 29°19' W 094°48'0 0.0
2020-Mar-29 22:28N 29°19' W 094°48'0 0.0
2020-Mar-29 21:25N 29°19' W 094°48'0 0.0
2020-Mar-29 20:28N 29°19' W 094°48'0 0.0
2020-Mar-29 19:28N 29°19' W 094°48'0 0.0
2020-Mar-29 18:58N 29°19' W 094°48'0 0.0
2020-Mar-29 17:55N 29°19' W 094°48'0 0.0
2020-Mar-29 17:28N 29°19' W 094°48'0 0.0
2020-Mar-29 16:28N 29°19' W 094°48'0 0.0
2020-Mar-29 14:28N 29°19' W 094°48'0 0.0
2020-Mar-29 13:28N 29°19' W 094°48'0 0.0
2020-Mar-29 12:58N 29°19' W 094°48'0 0.0
2020-Mar-29 12:28N 29°19' W 094°48'0 0.1
2020-Mar-29 11:30N 29°19' W 094°48'22 9.0
2020-Mar-29 09:01N 29°08' W 094°25'11 1.3
2020-Mar-29 00:00N 29°06' W 094°38'0 0.0
2020-Mar-28 23:23N 29°06' W 094°38'0 0.0
2020-Mar-28 20:44N 29°06' W 094°38'0 0.0
2020-Mar-28 15:29N 29°06' W 094°38'0 0.0
2020-Mar-28 12:23N 29°06' W 094°38'0 0.0
2020-Mar-28 11:47N 29°06' W 094°38'0 0.0
2020-Mar-28 11:29N 29°06' W 094°38'0 0.0
2020-Mar-28 08:29N 29°06' W 094°38'0 0.0
2020-Mar-28 06:17N 29°06' W 094°38'0 0.1
2020-Mar-28 05:56N 29°06' W 094°38'0 0.0
2020-Mar-28 02:59N 29°06' W 094°38'0 0.0
2020-Mar-28 02:26N 29°06' W 094°38'0 0.0
2020-Mar-28 01:50N 29°06' W 094°38'0 0.0
2020-Mar-28 00:59N 29°06' W 094°38'0 0.0
2020-Mar-27 22:26N 29°06' W 094°38'0 0.0
2020-Mar-27 21:29N 29°06' W 094°38'0 0.0
2020-Mar-27 16:56N 29°06' W 094°38'0 0.0
2020-Mar-27 16:29N 29°06' W 094°38'0 0.0
2020-Mar-27 15:56N 29°06' W 094°38'0 0.0
2020-Mar-27 14:59N 29°06' W 094°38'0 0.0
2020-Mar-27 13:26N 29°06' W 094°38'0 0.1
2020-Mar-27 12:29N 29°06' W 094°38'0 0.2
2020-Mar-27 11:59N 29°06' W 094°38'0 0.0
2020-Mar-27 10:29N 29°06' W 094°38'0 0.0
2020-Mar-27 09:59N 29°06' W 094°38'0 0.0
2020-Mar-27 07:50N 29°06' W 094°38'0 0.0
2020-Mar-27 05:59N 29°06' W 094°38'0 0.0
2020-Mar-27 03:29N 29°06' W 094°38'0 0.0
2020-Mar-26 21:26N 29°06' W 094°38'0 0.0
2020-Mar-26 20:59N 29°06' W 094°38'0 0.0
2020-Mar-26 17:56N 29°06' W 094°38'0 0.0
2020-Mar-26 17:26N 29°06' W 094°38'0 0.0
2020-Mar-26 14:53N 29°06' W 094°38'0 0.0
2020-Mar-26 13:26N 29°06' W 094°38'0 0.0
2020-Mar-26 10:59N 29°06' W 094°38'0 0.0
2020-Mar-26 09:59N 29°06' W 094°38'0 0.0
2020-Mar-26 09:29N 29°06' W 094°38'0 0.0
2020-Mar-26 07:56N 29°06' W 094°38'0 0.0
2020-Mar-26 07:26N 29°06' W 094°38'0 0.0
2020-Mar-26 06:59N 29°06' W 094°38'0 0.0
2020-Mar-26 06:29N 29°06' W 094°38'0 0.0
2020-Mar-26 05:59N 29°06' W 094°38'0 0.0
2020-Mar-26 05:29N 29°06' W 094°38'0 0.4
2020-Mar-26 04:30N 29°06' W 094°38'4 4.5
2020-Mar-26 03:30N 29°04' W 094°34'19 4.3
2020-Mar-25 22:58N 29°19' W 094°48'0 0.0
2020-Mar-25 20:28N 29°19' W 094°48'0 0.0
2020-Mar-25 15:28N 29°19' W 094°48'0 0.0
2020-Mar-25 13:28N 29°19' W 094°48'0 0.0
2020-Mar-25 12:58N 29°19' W 094°48'0 0.0
2020-Mar-25 10:28N 29°19' W 094°48'0 0.0
2020-Mar-25 08:28N 29°19' W 094°48'0 0.0
2020-Mar-25 07:58N 29°19' W 094°48'0 0.0
2020-Mar-25 05:28N 29°19' W 094°48'0 0.0
2020-Mar-25 01:28N 29°19' W 094°48'0 0.0
2020-Mar-25 00:58N 29°19' W 094°48'0 0.0
2020-Mar-25 00:28N 29°19' W 094°48'0 0.0
2020-Mar-24 22:58N 29°19' W 094°48'0 0.0
2020-Mar-24 21:31N 29°19' W 094°48'0 0.0
2020-Mar-24 19:58N 29°19' W 094°48'0 0.0
2020-Mar-24 19:31N 29°19' W 094°48'0 0.0
2020-Mar-24 18:58N 29°19' W 094°48'0 0.0
2020-Mar-24 17:28N 29°19' W 094°48'0 0.0
2020-Mar-24 16:58N 29°19' W 094°48'0 0.0
2020-Mar-24 15:28N 29°19' W 094°48'0 0.0
2020-Mar-24 13:58N 29°19' W 094°48'0 0.0
2020-Mar-24 13:28N 29°19' W 094°48'0 0.0
2020-Mar-24 12:58N 29°19' W 094°48'16 5.4
2020-Mar-24 10:01N 29°14' W 094°30'1811.7
2020-Mar-24 08:30N 28°57' W 094°24'612.6
2020-Mar-24 08:00N 28°51' W 094°24'612.7
2020-Mar-24 07:30N 28°45' W 094°24'19 7.9
2020-Mar-24 05:06N 28°26' W 094°19'610.2
2020-Mar-24 04:30N 28°20' W 094°17'19 6.5
2020-Mar-24 01:31N 28°17' W 094°38'8 7.7
2020-Mar-24 00:30N 28°17' W 094°47'9 8.8
2020-Mar-23 23:30N 28°26' W 094°47'  

Dump ship's entire track history